createdAt,value
2019-01-30T00:03:26.555Z,-0.34
2019-01-30T00:07:30.781Z,-0.27
2019-01-30T00:11:35.052Z,-0.26
2019-01-30T00:15:39.333Z,-0.32
2019-01-30T00:19:43.546Z,-0.32
2019-01-30T00:23:47.822Z,-0.34
2019-01-30T00:27:52.051Z,-0.34
2019-01-30T00:31:56.324Z,-0.34
2019-01-30T00:36:00.598Z,-0.28
2019-01-30T00:40:06.351Z,-0.24
2019-01-30T00:44:10.646Z,-0.24
2019-01-30T00:48:15.019Z,-0.24
2019-01-30T00:52:19.294Z,-0.32
2019-01-30T00:56:23.833Z,-0.38
2019-01-30T01:00:28.551Z,-0.53
2019-01-30T01:04:32.847Z,-0.58
2019-01-30T01:08:37.106Z,-0.61
2019-01-30T01:12:41.363Z,-0.61
2019-01-30T01:16:45.633Z,-0.60
2019-01-30T01:20:50.266Z,-0.57
2019-01-30T01:24:54.675Z,-0.54
2019-01-30T01:28:58.878Z,-0.56
2019-01-30T01:33:03.148Z,-0.61
2019-01-30T01:37:07.458Z,-0.64
2019-01-30T01:41:11.746Z,-0.74
2019-01-30T01:45:17.990Z,-0.77
2019-01-30T01:49:22.518Z,-0.76
2019-01-30T01:53:26.731Z,-0.78
2019-01-30T01:57:31.004Z,-0.78
2019-01-30T02:01:35.294Z,-0.74
2019-01-30T02:05:39.577Z,-0.74
2019-01-30T02:09:43.806Z,-0.69
2019-01-30T02:13:48.371Z,-0.68
2019-01-30T02:17:52.721Z,-0.67
2019-01-30T02:21:56.992Z,-0.68
2019-01-30T02:26:01.335Z,-0.70
2019-01-30T02:30:08.801Z,-0.76
2019-01-30T02:34:13.082Z,-0.79
2019-01-30T02:38:17.367Z,-0.83
2019-01-30T02:42:21.643Z,-0.82
2019-01-30T02:46:25.870Z,-0.78
2019-01-30T02:50:30.212Z,-0.76
2019-01-30T02:54:34.460Z,-0.80
2019-01-30T02:58:38.750Z,-0.84
2019-01-30T03:02:42.981Z,-0.80
2019-01-30T03:06:47.257Z,-0.83
2019-01-30T03:10:51.537Z,-0.91
2019-01-30T03:14:55.816Z,-0.96
2019-01-30T03:19:00.085Z,-1.03
2019-01-30T03:23:04.465Z,-1.06
2019-01-30T03:27:08.754Z,-1.14
2019-01-30T03:31:18.034Z,-1.22
2019-01-30T03:35:19.217Z,-1.26
2019-01-30T03:39:23.485Z,-1.29
2019-01-30T03:43:27.702Z,-1.30
2019-01-30T03:47:31.934Z,-1.36
2019-01-30T03:51:36.209Z,-1.41
2019-01-30T03:55:40.480Z,-1.46
2019-01-30T03:59:45.112Z,-1.54
2019-01-30T04:03:49.366Z,-1.58
2019-01-30T04:07:54.003Z,-1.63
2019-01-30T04:11:58.318Z,-1.65
2019-01-30T04:16:02.583Z,-1.68
2019-01-30T04:20:08.423Z,-1.74
2019-01-30T04:24:12.698Z,-1.78
2019-01-30T04:28:16.907Z,-1.85
2019-01-30T04:32:21.185Z,-1.93
2019-01-30T04:36:25.476Z,-1.96
2019-01-30T04:40:29.700Z,-1.98
2019-01-30T04:44:34.015Z,-1.99
2019-01-30T04:48:38.284Z,-2.04
2019-01-30T04:52:42.571Z,-2.05
2019-01-30T04:56:46.764Z,-2.02
2019-01-30T05:00:51.079Z,-2.07
2019-01-30T05:04:55.356Z,-2.06
2019-01-30T05:09:00.477Z,-2.10
2019-01-30T05:13:04.728Z,-2.09
2019-01-30T05:17:09.736Z,-2.05
2019-01-30T05:21:14.075Z,-2.03
2019-01-30T05:25:20.143Z,-1.97
2019-01-30T05:29:24.798Z,-1.93
2019-01-30T05:33:29.009Z,-1.92
2019-01-30T05:37:33.313Z,-1.87
2019-01-30T05:41:37.732Z,-1.85
2019-01-30T05:45:41.957Z,-1.81
2019-01-30T05:49:46.209Z,-1.78
2019-01-30T05:53:50.508Z,-1.77
2019-01-30T05:57:54.762Z,-1.75
2019-01-30T06:01:59.031Z,-1.71
2019-01-30T06:06:03.321Z,-1.71
2019-01-30T06:10:07.996Z,-1.72
2019-01-30T06:14:12.249Z,-1.72
2019-01-30T06:18:16.491Z,-1.72
2019-01-30T06:22:20.762Z,-1.75
2019-01-30T06:26:25.007Z,-1.76
2019-01-30T06:30:29.314Z,-1.72
2019-01-30T06:34:33.673Z,-1.63
2019-01-30T06:38:38.042Z,-1.66
2019-01-30T06:42:42.353Z,-1.68
2019-01-30T06:46:46.659Z,-1.65
2019-01-30T06:50:50.961Z,-1.64
2019-01-30T06:54:55.259Z,-1.68
2019-01-30T06:58:59.542Z,-1.69
2019-01-30T07:03:04.069Z,-1.71
2019-01-30T07:07:08.778Z,-1.66
2019-01-30T07:11:13.063Z,-1.63
2019-01-30T07:15:17.439Z,-1.66
2019-01-30T07:19:21.711Z,-1.67
2019-01-30T07:23:25.998Z,-1.66
2019-01-30T07:27:30.221Z,-1.67
2019-01-30T07:31:34.528Z,-1.69
2019-01-30T07:35:38.815Z,-1.69
2019-01-30T07:39:43.096Z,-1.67
2019-01-30T07:43:47.434Z,-1.64
2019-01-30T07:47:52.052Z,-1.59
2019-01-30T07:51:56.408Z,-1.53
2019-01-30T07:56:00.674Z,-1.45
2019-01-30T08:00:07.057Z,-1.40
2019-01-30T08:04:11.441Z,-1.35
2019-01-30T08:08:15.733Z,-1.28
2019-01-30T08:12:20.061Z,-1.19
2019-01-30T08:16:25.100Z,-1.15
2019-01-30T08:20:29.458Z,-1.09
2019-01-30T08:24:34.239Z,-0.99
2019-01-30T08:28:39.247Z,-0.91
2019-01-30T08:32:44.248Z,-0.86
2019-01-30T08:36:50.853Z,-0.82
2019-01-30T08:40:55.328Z,-0.78
2019-01-30T08:44:59.747Z,-0.70
2019-01-30T08:49:04.321Z,-0.62
2019-01-30T08:53:08.896Z,-0.62
2019-01-30T08:57:13.817Z,-0.53
2019-01-30T09:01:18.170Z,-0.47
2019-01-30T09:05:22.777Z,-0.40
2019-01-30T09:09:27.544Z,-0.27
2019-01-30T09:13:32.283Z,-0.14
2019-01-30T09:17:36.890Z,-0.02
2019-01-30T09:21:41.673Z,0.10
2019-01-30T09:25:45.984Z,0.24
2019-01-30T09:29:50.605Z,0.41
2019-01-30T09:33:54.932Z,0.55
2019-01-30T09:37:59.172Z,0.70
2019-01-30T09:42:03.661Z,0.84
2019-01-30T09:46:07.959Z,0.93
2019-01-30T09:50:14.900Z,1.02
2019-01-30T09:54:19.171Z,1.11
2019-01-30T09:58:24.042Z,1.16
2019-01-30T10:02:28.413Z,1.16
2019-01-30T10:06:32.805Z,1.09
2019-01-30T10:10:38.414Z,1.08
2019-01-30T10:14:42.688Z,1.01
2019-01-30T10:18:46.943Z,0.99
2019-01-30T10:22:51.456Z,0.92
2019-01-30T10:26:55.755Z,0.86
2019-01-30T10:31:00.340Z,0.83
2019-01-30T10:35:23.818Z,0.86
2019-01-30T10:39:28.081Z,0.88
2019-01-30T10:43:32.456Z,0.95
2019-01-30T10:47:36.728Z,1.00
2019-01-30T10:51:41.065Z,1.07
2019-01-30T10:55:45.299Z,1.13
2019-01-30T10:59:49.666Z,1.19
2019-01-30T11:03:57.514Z,1.27
2019-01-30T11:07:59.885Z,1.35
2019-01-30T11:12:04.169Z,1.42
2019-01-30T11:16:08.463Z,1.47
2019-01-30T11:20:14.129Z,1.48
2019-01-30T11:24:18.390Z,1.55
2019-01-30T11:28:22.912Z,1.61
2019-01-30T11:32:27.202Z,1.63
2019-01-30T11:36:31.454Z,1.69
2019-01-30T11:40:35.824Z,1.72
2019-01-30T11:44:40.056Z,1.75
2019-01-30T11:48:44.340Z,1.74
2019-01-30T11:52:48.627Z,1.78
2019-01-30T11:56:52.914Z,1.77
2019-01-30T12:01:03.663Z,1.76
2019-01-30T12:05:10.293Z,1.76
2019-01-30T12:09:14.623Z,1.74
2019-01-30T12:13:18.880Z,1.79
2019-01-30T12:17:23.134Z,1.83
2019-01-30T12:21:27.436Z,1.84
2019-01-30T12:25:31.720Z,1.87
2019-01-30T12:29:36.965Z,1.92
2019-01-30T12:33:41.278Z,1.89
2019-01-30T12:37:45.539Z,1.92
2019-01-30T12:41:49.795Z,1.93
2019-01-30T12:45:54.086Z,1.94
2019-01-30T12:49:58.410Z,1.89
2019-01-30T12:54:02.939Z,1.86
2019-01-30T12:58:07.186Z,1.85
2019-01-30T13:02:11.668Z,1.85
2019-01-30T13:06:15.934Z,1.84
2019-01-30T13:10:20.586Z,1.84
2019-01-30T13:14:24.885Z,1.78
2019-01-30T13:18:29.149Z,1.73
2019-01-30T13:22:33.432Z,1.69
2019-01-30T13:26:37.777Z,1.71
2019-01-30T13:30:43.785Z,1.75
2019-01-30T13:34:48.924Z,1.84
2019-01-30T13:38:53.557Z,1.90
2019-01-30T13:42:57.796Z,1.86
2019-01-30T13:47:02.067Z,1.82
2019-01-30T13:51:06.922Z,1.82
2019-01-30T13:55:11.483Z,1.80
2019-01-30T13:59:15.742Z,1.78
2019-01-30T14:03:21.864Z,1.75
2019-01-30T14:07:27.889Z,1.72
2019-01-30T14:11:33.938Z,1.70
2019-01-30T14:15:39.835Z,1.72
2019-01-30T14:19:46.814Z,1.70
2019-01-30T14:23:52.711Z,1.66
2019-01-30T14:27:58.929Z,1.61
2019-01-30T14:32:04.720Z,1.59
2019-01-30T14:36:10.824Z,1.57
2019-01-30T14:40:18.508Z,1.60
2019-01-30T14:44:24.456Z,1.61
2019-01-30T14:48:30.327Z,1.61
2019-01-30T14:52:36.528Z,1.56
2019-01-30T14:56:42.960Z,1.54
2019-01-30T15:00:48.610Z,1.50
2019-01-30T15:04:54.313Z,1.47
2019-01-30T15:09:01.682Z,1.50
2019-01-30T15:13:09.634Z,1.48
2019-01-30T15:17:15.666Z,1.48
2019-01-30T15:21:21.773Z,1.46
2019-01-30T15:25:28.008Z,1.41
2019-01-30T15:29:33.860Z,1.38
2019-01-30T15:33:39.493Z,1.35
2019-01-30T15:37:45.476Z,1.32
2019-01-30T15:41:51.047Z,1.30
2019-01-30T15:45:55.278Z,1.31
2019-01-30T15:49:59.557Z,1.29
2019-01-30T15:54:03.926Z,1.28
2019-01-30T15:58:10.221Z,1.30
2019-01-30T16:02:14.506Z,1.30
2019-01-30T16:06:18.761Z,1.33
2019-01-30T16:10:23.016Z,1.37
2019-01-30T16:14:27.458Z,1.43
2019-01-30T16:18:31.735Z,1.41
2019-01-30T16:23:03.637Z,1.34
2019-01-30T16:27:07.874Z,1.24
2019-01-30T16:31:12.117Z,1.17
2019-01-30T16:35:18.528Z,1.13
2019-01-30T16:39:23.106Z,1.16
2019-01-30T16:43:27.330Z,1.21
2019-01-30T16:47:31.660Z,1.24
2019-01-30T16:51:37.128Z,1.28
2019-01-30T16:55:41.544Z,1.32
2019-01-30T16:59:45.776Z,1.34
2019-01-30T17:03:50.031Z,1.35
2019-01-30T17:07:54.295Z,1.37
2019-01-30T17:11:58.592Z,1.40
2019-01-30T17:16:02.858Z,1.36
2019-01-30T17:20:13.860Z,1.34
2019-01-30T17:24:19.087Z,1.33
2019-01-30T17:28:23.472Z,1.30
2019-01-30T17:32:27.924Z,1.29
2019-01-30T17:36:32.275Z,1.54
2019-01-30T17:40:36.961Z,1.62
2019-01-30T17:44:41.284Z,1.61
2019-01-30T17:48:45.598Z,1.61
2019-01-30T17:52:49.891Z,1.56
2019-01-30T17:56:54.248Z,1.50
2019-01-30T18:01:02.470Z,1.47
2019-01-30T18:05:06.946Z,1.53
2019-01-30T18:09:11.436Z,1.60
2019-01-30T18:13:15.713Z,1.57
2019-01-30T18:17:20.040Z,1.54
2019-01-30T18:21:24.290Z,1.57
2019-01-30T18:25:28.586Z,1.63
2019-01-30T18:29:32.894Z,1.66
2019-01-30T18:33:37.146Z,1.66
2019-01-30T18:37:41.447Z,1.71
2019-01-30T18:41:45.649Z,1.73
2019-01-30T18:45:49.982Z,1.70
2019-01-30T18:49:54.273Z,1.64
2019-01-30T18:53:58.805Z,1.60
2019-01-30T18:58:03.077Z,1.56
2019-01-30T19:02:07.453Z,1.56
2019-01-30T19:06:11.703Z,1.53
2019-01-30T19:10:16.874Z,1.48
2019-01-30T19:14:21.134Z,1.43
2019-01-30T19:18:25.662Z,1.38
2019-01-30T19:22:29.937Z,1.39
2019-01-30T19:26:34.190Z,1.39
2019-01-30T19:30:38.492Z,1.33
2019-01-30T19:34:42.762Z,1.33
2019-01-30T19:38:47.057Z,1.29
2019-01-30T19:42:51.348Z,1.29
2019-01-30T19:46:56.012Z,1.31
2019-01-30T19:51:02.586Z,1.33
2019-01-30T19:55:07.484Z,1.34
2019-01-30T19:59:17.340Z,1.29
2019-01-30T20:03:27.484Z,1.25
2019-01-30T20:07:33.348Z,1.24
2019-01-30T20:11:38.295Z,1.24
2019-01-30T20:15:45.825Z,1.25
2019-01-30T20:19:51.659Z,1.28
2019-01-30T20:23:56.293Z,1.29
2019-01-30T20:28:00.583Z,1.27
2019-01-30T20:32:04.921Z,1.24
2019-01-30T20:36:09.295Z,1.23
2019-01-30T20:40:16.047Z,1.21
2019-01-30T20:44:20.307Z,1.22
2019-01-30T20:48:24.630Z,1.25
2019-01-30T20:52:29.206Z,1.24
2019-01-30T20:56:38.332Z,1.19
2019-01-30T21:00:52.040Z,1.18
2019-01-30T21:04:57.101Z,1.20
2019-01-30T21:09:03.534Z,1.20
2019-01-30T21:13:08.292Z,1.20
2019-01-30T21:17:12.840Z,1.21
2019-01-30T21:21:17.085Z,1.23
2019-01-30T21:25:21.536Z,1.23
2019-01-30T21:29:25.918Z,1.18
2019-01-30T21:33:30.168Z,1.10
2019-01-30T21:37:34.908Z,1.08
2019-01-30T21:41:39.252Z,1.08
2019-01-30T21:45:43.651Z,1.10
2019-01-30T21:49:47.974Z,1.06
2019-01-30T21:53:52.298Z,1.02
2019-01-30T21:57:56.666Z,1.00
2019-01-30T22:02:08.046Z,0.99
2019-01-30T22:06:07.438Z,0.97
2019-01-30T22:10:14.415Z,0.94
2019-01-30T22:14:18.815Z,0.96
2019-01-30T22:18:23.113Z,0.90
2019-01-30T22:22:31.504Z,0.89
2019-01-30T22:27:12.961Z,0.94
2019-01-30T22:31:17.837Z,1.01
2019-01-30T22:35:24.985Z,1.03
2019-01-30T22:39:29.548Z,1.08
2019-01-30T22:43:51.302Z,1.13
2019-01-30T22:47:56.650Z,1.19
2019-01-30T22:52:02.508Z,1.24
2019-01-30T22:56:07.816Z,1.30
2019-01-30T23:00:58.431Z,1.33
2019-01-30T23:05:14.238Z,1.36
2019-01-30T23:10:11.751Z,1.37
2019-01-30T23:14:24.830Z,1.38
2019-01-30T23:18:59.608Z,1.40
2019-01-30T23:23:45.846Z,1.39
2019-01-30T23:28:41.588Z,1.36
2019-01-30T23:33:25.408Z,1.36
2019-01-30T23:38:12.375Z,1.33
2019-01-30T23:42:47.187Z,1.29
2019-01-30T23:47:34.602Z,1.22
2019-01-30T23:52:26.359Z,1.21
2019-01-30T23:56:56.433Z,1.19
